LHOB289 LTFM-OJAI
Flight info
| Callsign | LHOB289 |
|---|---|
| Flight time | 2h 18m |
| Altitude | 33000 |
| Route | RATVU1G/17R RATVU UT35 AYT UM855 TOMBI DCT SAFTA L324 GENIV L550 KARIK B411 ULINA M319 LOSIL |
| Aircraft | C17/H-SDE1E2FGHIJ5RTUWXY/LB1D1 |
Departure
| Time | 2026-05-08 16:57 |
|---|---|
| Airport | İstanbul Airport (LTFM) |
Arrival
| Time | 2026-05-08 19:16 |
|---|---|
| Airport | Queen Alia International Airport (OJAI) |
| Time | Latitude | Longitude | Altitude | Speed | Heading |
|---|---|---|---|---|---|
| 2026-05-08 16:22 | 41.27237 | 28.73612 | 330 ft | 0 kts | 359° |
| 2026-05-08 16:50 | 41.27239 | 28.73612 | 331 ft | 1 kts | 359° |
| 2026-05-08 16:50 | 41.27275 | 28.73608 | 326 ft | 9 kts | 347° |
| 2026-05-08 16:50 | 41.27310 | 28.73536 | 328 ft | 12 kts | 272° |
| 2026-05-08 16:51 | 41.27309 | 28.73406 | 328 ft | 16 kts | 269° |
| 2026-05-08 16:51 | 41.27306 | 28.73241 | 327 ft | 20 kts | 268° |
| 2026-05-08 16:51 | 41.27352 | 28.73096 | 330 ft | 19 kts | 356° |
| 2026-05-08 16:51 | 41.27490 | 28.73090 | 327 ft | 21 kts | 358° |
| 2026-05-08 16:52 | 41.27595 | 28.73013 | 327 ft | 18 kts | 290° |
| 2026-05-08 16:52 | 41.27705 | 28.72968 | 329 ft | 19 kts | 359° |
| 2026-05-08 16:52 | 41.27848 | 28.72967 | 326 ft | 22 kts | 359° |
| 2026-05-08 16:52 | 41.28009 | 28.72963 | 329 ft | 24 kts | 359° |
| 2026-05-08 16:53 | 41.28383 | 28.72954 | 327 ft | 29 kts | 359° |
| 2026-05-08 16:53 | 41.28591 | 28.72949 | 326 ft | 31 kts | 359° |
| 2026-05-08 16:53 | 41.28809 | 28.72944 | 327 ft | 32 kts | 359° |
| 2026-05-08 16:54 | 41.29037 | 28.72939 | 329 ft | 33 kts | 359° |
| 2026-05-08 16:54 | 41.29239 | 28.72934 | 329 ft | 27 kts | 359° |
| 2026-05-08 16:54 | 41.29410 | 28.72930 | 328 ft | 23 kts | 359° |
| 2026-05-08 16:54 | 41.29491 | 28.72848 | 327 ft | 14 kts | 270° |
| 2026-05-08 16:55 | 41.29490 | 28.72726 | 327 ft | 12 kts | 269° |
| 2026-05-08 16:55 | 41.29489 | 28.72613 | 329 ft | 14 kts | 269° |
| 2026-05-08 16:55 | 41.29475 | 28.72471 | 327 ft | 16 kts | 231° |
| 2026-05-08 16:55 | 41.29425 | 28.72452 | 327 ft | 0 kts | 179° |
| 2026-05-08 16:56 | 41.29422 | 28.72452 | 327 ft | 4 kts | 179° |
| 2026-05-08 16:56 | 41.29150 | 28.72457 | 327 ft | 79 kts | 179° |
| 2026-05-08 16:56 | 41.28365 | 28.72474 | 327 ft | 142 kts | 179° |
| 2026-05-08 16:57 | 41.27271 | 28.72499 | 659 ft | 166 kts | 181° |
| 2026-05-08 16:57 | 41.26055 | 28.72517 | 1295 ft | 182 kts | 184° |
| 2026-05-08 16:57 | 41.24773 | 28.72543 | 2140 ft | 184 kts | 184° |
| 2026-05-08 16:57 | 41.23517 | 28.72605 | 3088 ft | 182 kts | 184° |
| 2026-05-08 16:58 | 41.22183 | 28.72682 | 3788 ft | 201 kts | 182° |
| 2026-05-08 16:58 | 41.20691 | 28.72790 | 4222 ft | 240 kts | 179° |
| 2026-05-08 16:58 | 41.18702 | 28.72930 | 3080 ft | 340 kts | 181° |
| 2026-05-08 16:58 | 41.16437 | 28.73056 | 3812 ft | 303 kts | 179° |
| 2026-05-08 16:59 | 41.15054 | 28.73216 | 3725 ft | 288 kts | 174° |
| 2026-05-08 16:59 | 41.12645 | 28.74001 | 3804 ft | 253 kts | 172° |
| 2026-05-08 16:59 | 41.10979 | 28.74311 | 3746 ft | 233 kts | 179° |
| 2026-05-08 16:59 | 41.09256 | 28.74517 | 3790 ft | 259 kts | 178° |
| 2026-05-08 17:00 | 41.08148 | 28.74672 | 5047 ft | 213 kts | 175° |
| 2026-05-08 17:00 | 41.06819 | 28.75343 | 7914 ft | 125 kts | 153° |
| 2026-05-08 17:00 | 41.06271 | 28.75803 | 7909 ft | 165 kts | 153° |
| 2026-05-08 17:00 | 41.05039 | 28.76762 | 7741 ft | 234 kts | 153° |
| 2026-05-08 17:01 | 41.03561 | 28.77890 | 8653 ft | 252 kts | 153° |
| 2026-05-08 17:01 | 41.01996 | 28.79079 | 9508 ft | 269 kts | 153° |
| 2026-05-08 17:01 | 41.00310 | 28.80340 | 10226 ft | 288 kts | 154° |
| 2026-05-08 17:01 | 40.98427 | 28.81425 | 10965 ft | 302 kts | 162° |
| 2026-05-08 17:02 | 40.96394 | 28.82322 | 11748 ft | 314 kts | 163° |
| 2026-05-08 17:02 | 40.94302 | 28.83328 | 12551 ft | 325 kts | 159° |
| 2026-05-08 17:02 | 40.92193 | 28.84511 | 13449 ft | 333 kts | 158° |
| 2026-05-08 17:02 | 40.90029 | 28.85714 | 14313 ft | 340 kts | 159° |
| 2026-05-08 17:03 | 40.87817 | 28.86875 | 15175 ft | 345 kts | 160° |
| 2026-05-08 17:03 | 40.85566 | 28.88054 | 16054 ft | 350 kts | 160° |
| 2026-05-08 17:03 | 40.83302 | 28.89266 | 16965 ft | 353 kts | 160° |
| 2026-05-08 17:03 | 40.81013 | 28.90490 | 17895 ft | 355 kts | 161° |
| 2026-05-08 17:04 | 40.78717 | 28.91709 | 18784 ft | 357 kts | 161° |
| 2026-05-08 17:04 | 40.76443 | 28.92914 | 19619 ft | 357 kts | 161° |
| 2026-05-08 17:04 | 40.74123 | 28.94145 | 20432 ft | 362 kts | 162° |
| 2026-05-08 17:04 | 40.71767 | 28.95394 | 21225 ft | 365 kts | 162° |
| 2026-05-08 17:05 | 40.69398 | 28.96650 | 22041 ft | 368 kts | 162° |
| 2026-05-08 17:05 | 40.67020 | 28.97911 | 22887 ft | 369 kts | 162° |
| 2026-05-08 17:05 | 40.64622 | 28.99178 | 23662 ft | 373 kts | 162° |
| 2026-05-08 17:05 | 40.62200 | 29.00457 | 24289 ft | 377 kts | 162° |
| 2026-05-08 17:06 | 40.59752 | 29.01752 | 24937 ft | 380 kts | 162° |
| 2026-05-08 17:06 | 40.57285 | 29.03055 | 25547 ft | 384 kts | 162° |
| 2026-05-08 17:06 | 40.54791 | 29.04369 | 26167 ft | 388 kts | 162° |
| 2026-05-08 17:06 | 40.52275 | 29.05695 | 26809 ft | 391 kts | 162° |
| 2026-05-08 17:07 | 40.49735 | 29.07034 | 27422 ft | 395 kts | 161° |
| 2026-05-08 17:07 | 40.47174 | 29.08381 | 28025 ft | 398 kts | 161° |
| 2026-05-08 17:07 | 40.44597 | 29.09734 | 28654 ft | 401 kts | 161° |
| 2026-05-08 17:07 | 40.41997 | 29.11102 | 29302 ft | 403 kts | 161° |
| 2026-05-08 17:08 | 40.39390 | 29.12470 | 29962 ft | 405 kts | 161° |
| 2026-05-08 17:08 | 40.36761 | 29.13848 | 30518 ft | 407 kts | 161° |
| 2026-05-08 17:08 | 40.34153 | 29.15215 | 31073 ft | 409 kts | 161° |
| 2026-05-08 17:08 | 40.31472 | 29.16618 | 31637 ft | 410 kts | 161° |
| 2026-05-08 17:09 | 40.28815 | 29.18007 | 32211 ft | 411 kts | 161° |
| 2026-05-08 17:09 | 40.26151 | 29.19400 | 32777 ft | 413 kts | 162° |
| 2026-05-08 17:09 | 40.23457 | 29.20805 | 33018 ft | 422 kts | 162° |
| 2026-05-08 17:09 | 40.20690 | 29.22246 | 33055 ft | 433 kts | 162° |
| 2026-05-08 17:10 | 40.15066 | 29.25180 | 33070 ft | 441 kts | 161° |
| 2026-05-08 17:10 | 40.09342 | 29.28156 | 33061 ft | 445 kts | 162° |
| 2026-05-08 17:11 | 40.03598 | 29.31140 | 33079 ft | 443 kts | 162° |
| 2026-05-08 17:11 | 39.97873 | 29.34106 | 33080 ft | 443 kts | 162° |
| 2026-05-08 17:12 | 39.92117 | 29.37083 | 33094 ft | 444 kts | 162° |
| 2026-05-08 17:12 | 39.86406 | 29.40247 | 33084 ft | 446 kts | 162° |
| 2026-05-08 17:13 | 39.80641 | 29.43310 | 33089 ft | 447 kts | 160° |
| 2026-05-08 17:13 | 39.74979 | 29.46487 | 33086 ft | 446 kts | 161° |
| 2026-05-08 17:14 | 39.69202 | 29.49615 | 33095 ft | 448 kts | 161° |
| 2026-05-08 17:14 | 39.63450 | 29.52741 | 33109 ft | 449 kts | 164° |
| 2026-05-08 17:15 | 39.57645 | 29.55639 | 33090 ft | 450 kts | 163° |
| 2026-05-08 17:15 | 39.51829 | 29.58569 | 33102 ft | 448 kts | 164° |
| 2026-05-08 17:16 | 39.45988 | 29.61458 | 33098 ft | 450 kts | 163° |
| 2026-05-08 17:16 | 39.40149 | 29.64382 | 33102 ft | 450 kts | 165° |
| 2026-05-08 17:17 | 39.34293 | 29.67278 | 33109 ft | 450 kts | 164° |
| 2026-05-08 17:17 | 39.28458 | 29.70181 | 33098 ft | 449 kts | 165° |
| 2026-05-08 17:18 | 39.22613 | 29.73068 | 33111 ft | 450 kts | 164° |
| 2026-05-08 17:18 | 39.16750 | 29.75966 | 33110 ft | 452 kts | 165° |
| 2026-05-08 17:19 | 39.10877 | 29.78865 | 33118 ft | 450 kts | 165° |
| 2026-05-08 17:19 | 39.05030 | 29.81742 | 33110 ft | 451 kts | 165° |
| 2026-05-08 17:20 | 38.99154 | 29.84633 | 33128 ft | 451 kts | 165° |
| 2026-05-08 17:20 | 38.93320 | 29.87491 | 33119 ft | 453 kts | 165° |
| 2026-05-08 17:21 | 38.87430 | 29.90375 | 33120 ft | 452 kts | 165° |
| 2026-05-08 17:21 | 38.81539 | 29.93152 | 33122 ft | 451 kts | 166° |
| 2026-05-08 17:22 | 38.75632 | 29.95970 | 33126 ft | 454 kts | 165° |
| 2026-05-08 17:22 | 38.69734 | 29.98767 | 33125 ft | 450 kts | 165° |
| 2026-05-08 17:23 | 38.63834 | 30.01559 | 33125 ft | 452 kts | 165° |
| 2026-05-08 17:23 | 38.57930 | 30.04352 | 33127 ft | 452 kts | 165° |
| 2026-05-08 17:24 | 38.52086 | 30.07109 | 33109 ft | 450 kts | 166° |
| 2026-05-08 17:24 | 38.46177 | 30.09891 | 33135 ft | 454 kts | 166° |
| 2026-05-08 17:25 | 38.40254 | 30.12679 | 33126 ft | 452 kts | 166° |
| 2026-05-08 17:25 | 38.34358 | 30.15445 | 33129 ft | 452 kts | 166° |
| 2026-05-08 17:26 | 38.28424 | 30.18183 | 33125 ft | 454 kts | 167° |
| 2026-05-08 17:26 | 38.22482 | 30.20905 | 33120 ft | 454 kts | 166° |
| 2026-05-08 17:27 | 38.16571 | 30.23625 | 33145 ft | 455 kts | 166° |
| 2026-05-08 17:27 | 38.10614 | 30.26355 | 33124 ft | 453 kts | 166° |
| 2026-05-08 17:28 | 38.04685 | 30.29069 | 33132 ft | 453 kts | 167° |
| 2026-05-08 17:28 | 37.98711 | 30.31793 | 33140 ft | 457 kts | 167° |
| 2026-05-08 17:29 | 37.92748 | 30.34494 | 33119 ft | 453 kts | 167° |
| 2026-05-08 17:29 | 37.86823 | 30.37174 | 33117 ft | 456 kts | 167° |
| 2026-05-08 17:30 | 37.80853 | 30.39875 | 33102 ft | 455 kts | 167° |
| 2026-05-08 17:30 | 37.74857 | 30.42575 | 33108 ft | 459 kts | 167° |
| 2026-05-08 17:31 | 37.68805 | 30.45305 | 33114 ft | 457 kts | 167° |
| 2026-05-08 17:31 | 37.62859 | 30.47975 | 33105 ft | 456 kts | 167° |
| 2026-05-08 17:32 | 37.56870 | 30.50662 | 33112 ft | 458 kts | 167° |
| 2026-05-08 17:32 | 37.50814 | 30.53375 | 33120 ft | 463 kts | 167° |
| 2026-05-08 17:33 | 37.44768 | 30.56081 | 33103 ft | 459 kts | 167° |
| 2026-05-08 17:33 | 37.38735 | 30.58771 | 33102 ft | 462 kts | 167° |
| 2026-05-08 17:34 | 37.32677 | 30.61475 | 33087 ft | 460 kts | 167° |
| 2026-05-08 17:34 | 37.26627 | 30.64161 | 33079 ft | 463 kts | 167° |
| 2026-05-08 17:35 | 37.20556 | 30.66862 | 33063 ft | 462 kts | 167° |
| 2026-05-08 17:35 | 37.14505 | 30.69543 | 33054 ft | 461 kts | 167° |
| 2026-05-08 17:36 | 37.08478 | 30.72211 | 33042 ft | 463 kts | 167° |
| 2026-05-08 17:36 | 37.02405 | 30.74895 | 33036 ft | 463 kts | 167° |
| 2026-05-08 17:37 | 36.96346 | 30.77568 | 33028 ft | 461 kts | 167° |
| 2026-05-08 17:37 | 36.90221 | 30.79525 | 33053 ft | 444 kts | 185° |
| 2026-05-08 17:38 | 36.84044 | 30.79725 | 33037 ft | 444 kts | 187° |
| 2026-05-08 17:38 | 36.77881 | 30.79941 | 33039 ft | 442 kts | 186° |
| 2026-05-08 17:39 | 36.71726 | 30.80152 | 33036 ft | 443 kts | 187° |
| 2026-05-08 17:39 | 36.65553 | 30.80368 | 33020 ft | 443 kts | 187° |
| 2026-05-08 17:40 | 36.59434 | 30.80577 | 33024 ft | 443 kts | 187° |
| 2026-05-08 17:40 | 36.53253 | 30.80792 | 33028 ft | 444 kts | 187° |
| 2026-05-08 17:41 | 36.47084 | 30.81005 | 33024 ft | 442 kts | 187° |
| 2026-05-08 17:41 | 36.40928 | 30.81214 | 33023 ft | 444 kts | 187° |
| 2026-05-08 17:42 | 36.34748 | 30.81422 | 33024 ft | 443 kts | 187° |
| 2026-05-08 17:42 | 36.28593 | 30.81628 | 33022 ft | 442 kts | 187° |
| 2026-05-08 17:43 | 36.22437 | 30.81832 | 33011 ft | 443 kts | 187° |
| 2026-05-08 17:43 | 36.16266 | 30.82037 | 33031 ft | 444 kts | 187° |
| 2026-05-08 17:44 | 36.10094 | 30.82245 | 33025 ft | 443 kts | 187° |
| 2026-05-08 17:44 | 36.03928 | 30.82604 | 33014 ft | 452 kts | 176° |
| 2026-05-08 17:45 | 35.98827 | 30.84436 | 33046 ft | 463 kts | 169° |
| 2026-05-08 17:45 | 35.91683 | 30.87220 | 33038 ft | 461 kts | 170° |
| 2026-05-08 17:46 | 35.85564 | 30.89557 | 33024 ft | 461 kts | 170° |
| 2026-05-08 17:46 | 35.79427 | 30.91918 | 33044 ft | 462 kts | 170° |
| 2026-05-08 17:47 | 35.73302 | 30.94264 | 33026 ft | 460 kts | 170° |
| 2026-05-08 17:47 | 35.68212 | 30.96209 | 33031 ft | 462 kts | 169° |
| 2026-05-08 17:48 | 35.62041 | 30.98565 | 33044 ft | 467 kts | 169° |
| 2026-05-08 17:48 | 35.55857 | 31.00928 | 33043 ft | 463 kts | 169° |
| 2026-05-08 17:49 | 35.49703 | 31.03266 | 33039 ft | 465 kts | 169° |
| 2026-05-08 17:49 | 35.43495 | 31.05630 | 33050 ft | 466 kts | 169° |
| 2026-05-08 17:50 | 35.37324 | 31.07971 | 33046 ft | 464 kts | 169° |
| 2026-05-08 17:50 | 35.31131 | 31.10316 | 33052 ft | 466 kts | 169° |
| 2026-05-08 17:51 | 35.24981 | 31.12644 | 33042 ft | 465 kts | 169° |
| 2026-05-08 17:51 | 35.18783 | 31.14983 | 33046 ft | 467 kts | 169° |
| 2026-05-08 17:52 | 35.12574 | 31.17326 | 33046 ft | 466 kts | 169° |
| 2026-05-08 17:53 | 35.03288 | 31.20819 | 33046 ft | 466 kts | 169° |
| 2026-05-08 17:53 | 34.97064 | 31.23156 | 33056 ft | 469 kts | 169° |
| 2026-05-08 17:54 | 34.90841 | 31.25492 | 33053 ft | 468 kts | 169° |
| 2026-05-08 17:54 | 34.84573 | 31.27835 | 33057 ft | 472 kts | 169° |
| 2026-05-08 17:55 | 34.78311 | 31.30181 | 33052 ft | 468 kts | 169° |
| 2026-05-08 17:55 | 34.72078 | 31.32503 | 33052 ft | 470 kts | 169° |
| 2026-05-08 17:56 | 34.65820 | 31.34837 | 33055 ft | 470 kts | 169° |
| 2026-05-08 17:56 | 34.59577 | 31.37159 | 33051 ft | 468 kts | 169° |
| 2026-05-08 17:57 | 34.53369 | 31.39464 | 33055 ft | 470 kts | 169° |
| 2026-05-08 17:57 | 34.47116 | 31.41784 | 33055 ft | 470 kts | 169° |
| 2026-05-08 17:58 | 34.40873 | 31.44096 | 33054 ft | 469 kts | 169° |
| 2026-05-08 17:58 | 34.34623 | 31.46405 | 33055 ft | 469 kts | 169° |
| 2026-05-08 17:59 | 34.28372 | 31.48713 | 33047 ft | 469 kts | 169° |
| 2026-05-08 17:59 | 34.22130 | 31.51014 | 33057 ft | 469 kts | 169° |
| 2026-05-08 18:00 | 34.15877 | 31.53315 | 33054 ft | 472 kts | 168° |
| 2026-05-08 18:00 | 34.06451 | 31.56779 | 33050 ft | 473 kts | 168° |
| 2026-05-08 18:01 | 34.00163 | 31.59080 | 33050 ft | 473 kts | 168° |
| 2026-05-08 18:01 | 33.93856 | 31.61390 | 33062 ft | 474 kts | 168° |
| 2026-05-08 18:02 | 33.88624 | 31.63303 | 33052 ft | 472 kts | 168° |
| 2026-05-08 18:02 | 33.81276 | 31.65982 | 33050 ft | 473 kts | 168° |
| 2026-05-08 18:03 | 33.74969 | 31.68280 | 33059 ft | 472 kts | 168° |
| 2026-05-08 18:03 | 33.68682 | 31.70564 | 33053 ft | 471 kts | 168° |
| 2026-05-08 18:04 | 33.62423 | 31.72834 | 33054 ft | 473 kts | 168° |
| 2026-05-08 18:04 | 33.56132 | 31.75115 | 33052 ft | 472 kts | 169° |
| 2026-05-08 18:05 | 33.49860 | 31.77384 | 33052 ft | 471 kts | 168° |
| 2026-05-08 18:05 | 33.43564 | 31.79658 | 33056 ft | 472 kts | 168° |
| 2026-05-08 18:06 | 33.37271 | 31.81925 | 33058 ft | 474 kts | 168° |
| 2026-05-08 18:06 | 33.30948 | 31.84204 | 33060 ft | 474 kts | 168° |
| 2026-05-08 18:07 | 33.24688 | 31.86453 | 33047 ft | 472 kts | 168° |
| 2026-05-08 18:07 | 33.18376 | 31.88719 | 33051 ft | 474 kts | 168° |
| 2026-05-08 18:08 | 33.12047 | 31.90988 | 33050 ft | 473 kts | 168° |
| 2026-05-08 18:08 | 33.05740 | 31.93244 | 33050 ft | 473 kts | 168° |
| 2026-05-08 18:09 | 32.99432 | 31.95498 | 33054 ft | 474 kts | 168° |
| 2026-05-08 18:09 | 32.93114 | 31.97753 | 33056 ft | 473 kts | 168° |
| 2026-05-08 18:10 | 32.86811 | 31.99998 | 33052 ft | 472 kts | 168° |
| 2026-05-08 18:10 | 32.80503 | 32.02241 | 33059 ft | 474 kts | 168° |
| 2026-05-08 18:11 | 32.74195 | 32.04484 | 33053 ft | 472 kts | 168° |
| 2026-05-08 18:11 | 32.67897 | 32.06715 | 33047 ft | 472 kts | 168° |
| 2026-05-08 18:12 | 32.64784 | 32.07985 | 33036 ft | 478 kts | 157° |
| 2026-05-08 18:12 | 32.61984 | 32.10163 | 33064 ft | 487 kts | 140° |
| 2026-05-08 18:12 | 32.57266 | 32.16032 | 33062 ft | 492 kts | 133° |
| 2026-05-08 18:13 | 32.52654 | 32.21953 | 33054 ft | 487 kts | 135° |
| 2026-05-08 18:13 | 32.48032 | 32.27785 | 33053 ft | 489 kts | 134° |
| 2026-05-08 18:14 | 32.43382 | 32.33705 | 33045 ft | 486 kts | 134° |
| 2026-05-08 18:14 | 32.38766 | 32.39534 | 33049 ft | 491 kts | 134° |
| 2026-05-08 18:15 | 32.34093 | 32.45447 | 33055 ft | 490 kts | 134° |
| 2026-05-08 18:15 | 32.29437 | 32.51320 | 33052 ft | 489 kts | 134° |
| 2026-05-08 18:16 | 32.24797 | 32.57165 | 33054 ft | 491 kts | 134° |
| 2026-05-08 18:16 | 32.20098 | 32.63075 | 33049 ft | 489 kts | 134° |
| 2026-05-08 18:17 | 32.15453 | 32.68909 | 33050 ft | 492 kts | 134° |
| 2026-05-08 18:17 | 32.10768 | 32.74780 | 33036 ft | 489 kts | 134° |
| 2026-05-08 18:18 | 32.06108 | 32.80614 | 33044 ft | 489 kts | 134° |
| 2026-05-08 18:18 | 32.01431 | 32.86460 | 33046 ft | 490 kts | 134° |
| 2026-05-08 18:19 | 31.96757 | 32.92289 | 33034 ft | 490 kts | 134° |
| 2026-05-08 18:19 | 31.92086 | 32.98110 | 33044 ft | 492 kts | 134° |
| 2026-05-08 18:20 | 31.87391 | 33.03949 | 33038 ft | 490 kts | 134° |
| 2026-05-08 18:20 | 31.82557 | 33.09583 | 33016 ft | 488 kts | 148° |
| 2026-05-08 18:21 | 31.79591 | 33.11427 | 33043 ft | 481 kts | 165° |
| 2026-05-08 18:21 | 31.76361 | 33.12276 | 33057 ft | 472 kts | 181° |
| 2026-05-08 18:21 | 31.69811 | 33.12626 | 33037 ft | 469 kts | 184° |
| 2026-05-08 18:22 | 31.63305 | 33.12931 | 33034 ft | 468 kts | 182° |
| 2026-05-08 18:22 | 31.56775 | 33.13275 | 33034 ft | 470 kts | 183° |
| 2026-05-08 18:23 | 31.50254 | 33.13594 | 33016 ft | 468 kts | 183° |
| 2026-05-08 18:23 | 31.43743 | 33.13923 | 33018 ft | 469 kts | 183° |
| 2026-05-08 18:24 | 31.37213 | 33.14492 | 33009 ft | 476 kts | 169° |
| 2026-05-08 18:24 | 31.34105 | 33.15872 | 33033 ft | 482 kts | 156° |
| 2026-05-08 18:24 | 31.31124 | 33.17718 | 33033 ft | 488 kts | 154° |
| 2026-05-08 18:25 | 31.25174 | 33.21573 | 33024 ft | 486 kts | 154° |
| 2026-05-08 18:25 | 31.19213 | 33.25276 | 33015 ft | 485 kts | 154° |
| 2026-05-08 18:26 | 31.13293 | 33.29033 | 33019 ft | 487 kts | 154° |
| 2026-05-08 18:26 | 31.07299 | 33.32787 | 33018 ft | 485 kts | 154° |
| 2026-05-08 18:27 | 31.02360 | 33.35894 | 33014 ft | 486 kts | 154° |
| 2026-05-08 18:27 | 30.95435 | 33.40232 | 33020 ft | 486 kts | 154° |
| 2026-05-08 18:28 | 30.89489 | 33.43957 | 33017 ft | 485 kts | 154° |
| 2026-05-08 18:28 | 30.83537 | 33.47676 | 33018 ft | 486 kts | 154° |
| 2026-05-08 18:29 | 30.77578 | 33.51397 | 33020 ft | 485 kts | 154° |
| 2026-05-08 18:29 | 30.71628 | 33.55103 | 33035 ft | 484 kts | 154° |
| 2026-05-08 18:30 | 30.65693 | 33.58799 | 33029 ft | 484 kts | 154° |
| 2026-05-08 18:30 | 30.59749 | 33.62493 | 33026 ft | 485 kts | 154° |
| 2026-05-08 18:31 | 30.53837 | 33.66163 | 33035 ft | 484 kts | 154° |
| 2026-05-08 18:31 | 30.47903 | 33.69841 | 33013 ft | 484 kts | 154° |
| 2026-05-08 18:32 | 30.41938 | 33.73532 | 33016 ft | 486 kts | 154° |
| 2026-05-08 18:32 | 30.35998 | 33.77206 | 33014 ft | 483 kts | 154° |
| 2026-05-08 18:33 | 30.30056 | 33.80871 | 33011 ft | 485 kts | 154° |
| 2026-05-08 18:33 | 30.24094 | 33.84548 | 33011 ft | 484 kts | 154° |
| 2026-05-08 18:34 | 30.18163 | 33.88197 | 33008 ft | 484 kts | 154° |
| 2026-05-08 18:34 | 30.13211 | 33.91242 | 33004 ft | 484 kts | 154° |
| 2026-05-08 18:35 | 30.07270 | 33.94890 | 33001 ft | 482 kts | 154° |
| 2026-05-08 18:35 | 30.01332 | 33.98530 | 33001 ft | 486 kts | 154° |
| 2026-05-08 18:36 | 29.95367 | 34.02185 | 33003 ft | 484 kts | 154° |
| 2026-05-08 18:36 | 29.89419 | 34.05820 | 33001 ft | 484 kts | 154° |
| 2026-05-08 18:37 | 29.83471 | 34.09453 | 33007 ft | 483 kts | 154° |
| 2026-05-08 18:37 | 29.77541 | 34.13068 | 32998 ft | 482 kts | 154° |
| 2026-05-08 18:38 | 29.71605 | 34.16684 | 33002 ft | 484 kts | 154° |
| 2026-05-08 18:38 | 29.65713 | 34.20423 | 32989 ft | 484 kts | 143° |
| 2026-05-08 18:39 | 29.63334 | 34.23061 | 33016 ft | 483 kts | 126° |
| 2026-05-08 18:39 | 29.61631 | 34.26377 | 33021 ft | 483 kts | 109° |
| 2026-05-08 18:39 | 29.60773 | 34.30070 | 33022 ft | 476 kts | 91° |
| 2026-05-08 18:39 | 29.60645 | 34.33842 | 33015 ft | 470 kts | 85° |
| 2026-05-08 18:40 | 29.60710 | 34.41322 | 32996 ft | 467 kts | 84° |
| 2026-05-08 18:40 | 29.60689 | 34.48807 | 32992 ft | 469 kts | 85° |
| 2026-05-08 18:41 | 29.60532 | 34.56301 | 32961 ft | 473 kts | 97° |
| 2026-05-08 18:41 | 29.59544 | 34.59923 | 32980 ft | 480 kts | 113° |
| 2026-05-08 18:41 | 29.57728 | 34.63164 | 32969 ft | 486 kts | 131° |
| 2026-05-08 18:42 | 29.52625 | 34.68312 | 32956 ft | 489 kts | 142° |
| 2026-05-08 18:42 | 29.47368 | 34.73198 | 32939 ft | 485 kts | 137° |
| 2026-05-08 18:43 | 29.45226 | 34.76160 | 32931 ft | 483 kts | 118° |
| 2026-05-08 18:43 | 29.43868 | 34.79656 | 32932 ft | 480 kts | 101° |
| 2026-05-08 18:43 | 29.42745 | 34.87166 | 32917 ft | 476 kts | 93° |
| 2026-05-08 18:44 | 29.42233 | 34.94573 | 32909 ft | 458 kts | 76° |
| 2026-05-08 18:44 | 29.42987 | 34.98071 | 32920 ft | 449 kts | 61° |
| 2026-05-08 18:44 | 29.44447 | 35.01184 | 32931 ft | 438 kts | 46° |
| 2026-05-08 18:45 | 29.48288 | 35.06463 | 32930 ft | 428 kts | 42° |
| 2026-05-08 18:45 | 29.52169 | 35.11679 | 32924 ft | 431 kts | 43° |
| 2026-05-08 18:46 | 29.56031 | 35.16929 | 32930 ft | 428 kts | 41° |
| 2026-05-08 18:46 | 29.58180 | 35.19203 | 32932 ft | 412 kts | 27° |
| 2026-05-08 18:46 | 29.60641 | 35.20790 | 32932 ft | 403 kts | 15° |
| 2026-05-08 18:47 | 29.65952 | 35.22784 | 32934 ft | 402 kts | 11° |
| 2026-05-08 18:47 | 29.71249 | 35.24729 | 32919 ft | 398 kts | 12° |
| 2026-05-08 18:48 | 29.76515 | 35.26663 | 32914 ft | 399 kts | 11° |
| 2026-05-08 18:48 | 29.81747 | 35.28590 | 32986 ft | 395 kts | 11° |
| 2026-05-08 18:49 | 29.87023 | 35.30527 | 33000 ft | 400 kts | 12° |
| 2026-05-08 18:49 | 29.92302 | 35.32481 | 33013 ft | 396 kts | 11° |
| 2026-05-08 18:50 | 29.97556 | 35.34413 | 33029 ft | 398 kts | 12° |
| 2026-05-08 18:50 | 30.02828 | 35.36366 | 33021 ft | 396 kts | 11° |
| 2026-05-08 18:51 | 30.08079 | 35.38308 | 33028 ft | 397 kts | 11° |
| 2026-05-08 18:51 | 30.13347 | 35.40255 | 33040 ft | 397 kts | 11° |
| 2026-05-08 18:52 | 30.18599 | 35.42205 | 33041 ft | 397 kts | 11° |
| 2026-05-08 18:52 | 30.23754 | 35.44575 | 33052 ft | 404 kts | 20° |
| 2026-05-08 18:53 | 30.28713 | 35.47579 | 33046 ft | 406 kts | 20° |
| 2026-05-08 18:53 | 30.33727 | 35.50586 | 33008 ft | 406 kts | 20° |
| 2026-05-08 18:54 | 30.36239 | 35.52106 | 32612 ft | 408 kts | 20° |
| 2026-05-08 18:54 | 30.38767 | 35.53628 | 32261 ft | 412 kts | 20° |
| 2026-05-08 18:54 | 30.41317 | 35.55162 | 31889 ft | 412 kts | 21° |
| 2026-05-08 18:54 | 30.43843 | 35.56691 | 31512 ft | 408 kts | 21° |
| 2026-05-08 18:55 | 30.48823 | 35.59701 | 30775 ft | 401 kts | 21° |
| 2026-05-08 18:55 | 30.51315 | 35.61202 | 30139 ft | 405 kts | 21° |
| 2026-05-08 18:55 | 30.53805 | 35.62709 | 29302 ft | 402 kts | 22° |
| 2026-05-08 18:56 | 30.56272 | 35.64209 | 28454 ft | 398 kts | 22° |
| 2026-05-08 18:56 | 30.58715 | 35.65689 | 27623 ft | 394 kts | 22° |
| 2026-05-08 18:56 | 30.61132 | 35.67151 | 26827 ft | 390 kts | 22° |
| 2026-05-08 18:56 | 30.63522 | 35.68600 | 26048 ft | 386 kts | 22° |
| 2026-05-08 18:57 | 30.65892 | 35.70039 | 25287 ft | 383 kts | 22° |
| 2026-05-08 18:57 | 30.67450 | 35.70984 | 24832 ft | 380 kts | 22° |
| 2026-05-08 18:57 | 30.70529 | 35.72855 | 24017 ft | 372 kts | 23° |
| 2026-05-08 18:57 | 30.72803 | 35.74237 | 23383 ft | 368 kts | 23° |
| 2026-05-08 18:58 | 30.75071 | 35.75612 | 22651 ft | 367 kts | 23° |
| 2026-05-08 18:58 | 30.77334 | 35.76989 | 21930 ft | 366 kts | 23° |
| 2026-05-08 18:58 | 30.79586 | 35.78361 | 21250 ft | 366 kts | 24° |
| 2026-05-08 18:58 | 30.81790 | 35.79854 | 20554 ft | 368 kts | 34° |
| 2026-05-08 18:59 | 30.83737 | 35.81800 | 19912 ft | 368 kts | 38° |
| 2026-05-08 18:59 | 30.85641 | 35.83772 | 19278 ft | 365 kts | 38° |
| 2026-05-08 18:59 | 30.87548 | 35.85710 | 18722 ft | 361 kts | 38° |
| 2026-05-08 18:59 | 30.89438 | 35.87615 | 18141 ft | 358 kts | 38° |
| 2026-05-08 19:00 | 30.91282 | 35.89490 | 17538 ft | 356 kts | 39° |
| 2026-05-08 19:00 | 30.93140 | 35.91388 | 16962 ft | 354 kts | 39° |
| 2026-05-08 19:00 | 30.94991 | 35.93274 | 16451 ft | 352 kts | 39° |
| 2026-05-08 19:00 | 30.96832 | 35.95145 | 15974 ft | 352 kts | 39° |
| 2026-05-08 19:01 | 30.98674 | 35.97022 | 15475 ft | 351 kts | 39° |
| 2026-05-08 19:01 | 31.00508 | 35.98894 | 15001 ft | 349 kts | 39° |
| 2026-05-08 19:01 | 31.02330 | 36.00753 | 14522 ft | 347 kts | 39° |
| 2026-05-08 19:01 | 31.04143 | 36.02604 | 14075 ft | 346 kts | 39° |
| 2026-05-08 19:02 | 31.05947 | 36.04446 | 13617 ft | 344 kts | 39° |
| 2026-05-08 19:02 | 31.07748 | 36.06286 | 13172 ft | 341 kts | 40° |
| 2026-05-08 19:02 | 31.09510 | 36.08087 | 13072 ft | 334 kts | 40° |
| 2026-05-08 19:02 | 31.11272 | 36.09890 | 13070 ft | 341 kts | 40° |
| 2026-05-08 19:03 | 31.13067 | 36.11726 | 13068 ft | 344 kts | 40° |
| 2026-05-08 19:03 | 31.14860 | 36.13563 | 13072 ft | 342 kts | 40° |
| 2026-05-08 19:03 | 31.16765 | 36.15185 | 13049 ft | 339 kts | 23° |
| 2026-05-08 19:03 | 31.18956 | 36.16232 | 13075 ft | 341 kts | 19° |
| 2026-05-08 19:04 | 31.21188 | 36.17231 | 12728 ft | 345 kts | 20° |
| 2026-05-08 19:04 | 31.23407 | 36.18256 | 12331 ft | 339 kts | 21° |
| 2026-05-08 19:04 | 31.25573 | 36.19275 | 11933 ft | 334 kts | 21° |
| 2026-05-08 19:04 | 31.27737 | 36.20282 | 11536 ft | 334 kts | 21° |
| 2026-05-08 19:05 | 31.29867 | 36.21269 | 11159 ft | 333 kts | 21° |
| 2026-05-08 19:05 | 31.32014 | 36.22267 | 10773 ft | 332 kts | 22° |
| 2026-05-08 19:05 | 31.34161 | 36.23268 | 10395 ft | 331 kts | 22° |
| 2026-05-08 19:05 | 31.36294 | 36.24261 | 10026 ft | 329 kts | 23° |
| 2026-05-08 19:06 | 31.38416 | 36.25250 | 9624 ft | 327 kts | 23° |
| 2026-05-08 19:06 | 31.40517 | 36.26230 | 9212 ft | 323 kts | 23° |
| 2026-05-08 19:06 | 31.42589 | 36.27196 | 8857 ft | 318 kts | 23° |
| 2026-05-08 19:06 | 31.44637 | 36.28153 | 8508 ft | 314 kts | 24° |
| 2026-05-08 19:07 | 31.46627 | 36.29081 | 8156 ft | 303 kts | 22° |
| 2026-05-08 19:07 | 31.48560 | 36.29984 | 7810 ft | 295 kts | 23° |
| 2026-05-08 19:07 | 31.50459 | 36.30821 | 7450 ft | 289 kts | 15° |
| 2026-05-08 19:07 | 31.52436 | 36.30900 | 7168 ft | 286 kts | 354° |
| 2026-05-08 19:08 | 31.54406 | 36.30524 | 6903 ft | 287 kts | 352° |
| 2026-05-08 19:08 | 31.56366 | 36.30124 | 6718 ft | 282 kts | 352° |
| 2026-05-08 19:08 | 31.58292 | 36.29745 | 6574 ft | 281 kts | 353° |
| 2026-05-08 19:08 | 31.60211 | 36.29373 | 6418 ft | 285 kts | 352° |
| 2026-05-08 19:09 | 31.62155 | 36.28997 | 6243 ft | 280 kts | 352° |
| 2026-05-08 19:09 | 31.64058 | 36.28626 | 6073 ft | 276 kts | 352° |
| 2026-05-08 19:09 | 31.65951 | 36.28258 | 5912 ft | 274 kts | 352° |
| 2026-05-08 19:09 | 31.67821 | 36.27895 | 5874 ft | 273 kts | 352° |
| 2026-05-08 19:10 | 31.69710 | 36.27527 | 5842 ft | 276 kts | 352° |
| 2026-05-08 19:10 | 31.71583 | 36.27161 | 5787 ft | 271 kts | 351° |
| 2026-05-08 19:10 | 31.73431 | 36.26723 | 5739 ft | 267 kts | 342° |
| 2026-05-08 19:10 | 31.74948 | 36.25615 | 5642 ft | 250 kts | 316° |
| 2026-05-08 19:11 | 31.75944 | 36.24001 | 5129 ft | 250 kts | 298° |
| 2026-05-08 19:11 | 31.76489 | 36.22086 | 4979 ft | 240 kts | 280° |
| 2026-05-08 19:11 | 31.76450 | 36.20191 | 4868 ft | 227 kts | 261° |
| 2026-05-08 19:11 | 31.76094 | 36.18477 | 4966 ft | 202 kts | 257° |
| 2026-05-08 19:12 | 31.75753 | 36.16991 | 5065 ft | 172 kts | 257° |
| 2026-05-08 19:12 | 31.75460 | 36.15707 | 5166 ft | 163 kts | 257° |
| 2026-05-08 19:12 | 31.75165 | 36.14375 | 5273 ft | 178 kts | 258° |
| 2026-05-08 19:12 | 31.74920 | 36.12917 | 5136 ft | 182 kts | 263° |
| 2026-05-08 19:13 | 31.74692 | 36.11467 | 4936 ft | 179 kts | 262° |
| 2026-05-08 19:13 | 31.74465 | 36.10040 | 4604 ft | 173 kts | 262° |
| 2026-05-08 19:13 | 31.74275 | 36.08689 | 4358 ft | 163 kts | 263° |
| 2026-05-08 19:13 | 31.74121 | 36.07381 | 4071 ft | 160 kts | 264° |
| 2026-05-08 19:14 | 31.73973 | 36.06073 | 3704 ft | 162 kts | 264° |
| 2026-05-08 19:14 | 31.73794 | 36.04773 | 3385 ft | 160 kts | 262° |
| 2026-05-08 19:14 | 31.73583 | 36.03492 | 3039 ft | 159 kts | 263° |
| 2026-05-08 19:14 | 31.73436 | 36.02206 | 2707 ft | 158 kts | 263° |
| 2026-05-08 19:15 | 31.73254 | 36.00964 | 2484 ft | 150 kts | 261° |
| 2026-05-08 19:15 | 31.73090 | 35.99816 | 2408 ft | 129 kts | 261° |
| 2026-05-08 19:15 | 31.72977 | 35.99014 | 2408 ft | 74 kts | 261° |
| 2026-05-08 19:15 | 31.72907 | 35.98537 | 2407 ft | 55 kts | 260° |
| 2026-05-08 19:16 | 31.72847 | 35.98213 | 2406 ft | 25 kts | 228° |
| 2026-05-08 19:16 | 31.72735 | 35.98199 | 2406 ft | 15 kts | 171° |
| 2026-05-08 19:16 | 31.72633 | 35.98219 | 2408 ft | 15 kts | 171° |
| 2026-05-08 19:16 | 31.72590 | 35.98280 | 2408 ft | 12 kts | 84° |
| 2026-05-08 19:17 | 31.72611 | 35.98423 | 2408 ft | 23 kts | 80° |
| 2026-05-08 19:17 | 31.72643 | 35.98646 | 2407 ft | 29 kts | 80° |
| 2026-05-08 19:17 | 31.72676 | 35.98873 | 2408 ft | 27 kts | 80° |
| 2026-05-08 19:17 | 31.72706 | 35.99085 | 2406 ft | 26 kts | 81° |
| 2026-05-08 19:18 | 31.72737 | 35.99289 | 2406 ft | 25 kts | 80° |
| 2026-05-08 19:18 | 31.72766 | 35.99488 | 2407 ft | 24 kts | 81° |
| 2026-05-08 19:18 | 31.72792 | 35.99684 | 2406 ft | 24 kts | 81° |
| 2026-05-08 19:18 | 31.72816 | 35.99845 | 2407 ft | 15 kts | 80° |
| 2026-05-08 19:19 | 31.72813 | 35.99929 | 2407 ft | 6 kts | 123° |
| 2026-05-08 19:19 | 31.72779 | 35.99948 | 2408 ft | 6 kts | 167° |
| 2026-05-08 19:19 | 31.72753 | 35.99954 | 2408 ft | 3 kts | 171° |
| 2026-05-08 19:19 | 31.72736 | 35.99957 | 2407 ft | 1 kts | 171° |
| 2026-05-08 19:20 | 31.72735 | 35.99957 | 2407 ft | 0 kts | 171° |